createdAt,value
2023-05-16T00:00:06.829Z,8.93
2023-05-16T00:02:33.751Z,8.90
2023-05-16T00:05:00.573Z,8.85
2023-05-16T00:07:27.318Z,8.80
2023-05-16T00:09:53.791Z,8.75
2023-05-16T00:12:20.258Z,8.73
2023-05-16T00:14:46.737Z,8.72
2023-05-16T00:17:13.322Z,8.70
2023-05-16T00:19:40.553Z,8.67
2023-05-16T00:22:07.081Z,8.67
2023-05-16T00:24:34.661Z,8.68
2023-05-16T00:27:01.076Z,8.70
2023-05-16T00:29:27.922Z,8.71
2023-05-16T00:31:54.460Z,8.71
2023-05-16T00:34:21.228Z,8.66
2023-05-16T00:36:47.801Z,8.59
2023-05-16T00:39:14.547Z,8.51
2023-05-16T00:41:41.219Z,8.46
2023-05-16T00:44:08.095Z,8.42
2023-05-16T00:46:35.808Z,8.40
2023-05-16T00:49:02.692Z,8.40
2023-05-16T00:51:29.764Z,8.38
2023-05-16T00:53:57.208Z,8.35
2023-05-16T00:56:24.006Z,8.31
2023-05-16T00:58:51.052Z,8.24
2023-05-16T01:01:20.270Z,8.17
2023-05-16T01:03:46.990Z,8.12
2023-05-16T01:06:13.819Z,8.10
2023-05-16T01:08:40.346Z,8.06
2023-05-16T01:11:22.267Z,8.03
2023-05-16T01:14:12.863Z,7.98
2023-05-16T01:16:45.820Z,7.94
2023-05-16T01:19:37.237Z,7.92
2023-05-16T01:22:16.473Z,7.91
2023-05-16T01:24:48.986Z,7.90
2023-05-16T01:27:16.855Z,7.88
2023-05-16T01:29:43.581Z,7.87
2023-05-16T01:32:10.100Z,7.85
2023-05-16T01:34:36.754Z,7.81
2023-05-16T01:37:18.656Z,7.77
2023-05-16T01:39:57.392Z,7.73
2023-05-16T01:42:27.147Z,7.69
2023-05-16T01:45:03.161Z,7.66
2023-05-16T01:47:31.702Z,7.64
2023-05-16T01:50:16.104Z,7.63
2023-05-16T01:52:47.716Z,7.64
2023-05-16T01:55:21.356Z,7.67
2023-05-16T01:57:49.609Z,7.70
2023-05-16T02:00:16.228Z,7.72
2023-05-16T02:02:42.689Z,7.75
2023-05-16T02:05:09.740Z,7.75
2023-05-16T02:07:36.268Z,7.77
2023-05-16T02:10:03.118Z,7.79
2023-05-16T02:12:29.684Z,7.85
2023-05-16T02:14:56.122Z,7.87
2023-05-16T02:17:22.614Z,7.87
2023-05-16T02:19:49.224Z,7.86
2023-05-16T02:22:15.760Z,7.83
2023-05-16T02:24:42.239Z,7.79
2023-05-16T02:27:08.751Z,7.77
2023-05-16T02:29:35.394Z,7.77
2023-05-16T02:32:01.890Z,7.76
2023-05-16T02:34:28.399Z,7.71
2023-05-16T02:36:55.055Z,7.65
2023-05-16T02:39:21.573Z,7.56
2023-05-16T02:41:48.244Z,7.48
2023-05-16T02:44:14.749Z,7.41
2023-05-16T02:46:41.319Z,7.35
2023-05-16T02:49:07.900Z,7.30
2023-05-16T02:51:34.502Z,7.26
2023-05-16T02:54:01.004Z,7.22
2023-05-16T02:56:27.604Z,7.18
2023-05-16T02:58:55.496Z,7.16
2023-05-16T03:01:22.216Z,7.18
2023-05-16T03:03:48.826Z,7.20
2023-05-16T03:06:15.516Z,7.21
2023-05-16T03:08:42.099Z,7.20
2023-05-16T03:11:08.639Z,7.17
2023-05-16T03:13:35.046Z,7.16
2023-05-16T03:16:01.823Z,7.15
2023-05-16T03:18:28.821Z,7.17
2023-05-16T03:20:55.404Z,7.22
2023-05-16T03:23:22.135Z,7.29
2023-05-16T03:25:49.254Z,7.35
2023-05-16T03:28:17.343Z,7.42
2023-05-16T03:30:44.028Z,7.61
2023-05-16T03:33:10.601Z,7.87
2023-05-16T03:35:37.084Z,8.08
2023-05-16T03:38:03.587Z,8.50
2023-05-16T03:40:30.288Z,9.03
2023-05-16T03:42:57.007Z,9.58
2023-05-16T03:45:23.960Z,10.13
2023-05-16T03:47:50.770Z,10.56
2023-05-16T03:50:18.114Z,11.10
2023-05-16T03:52:44.920Z,11.52
2023-05-16T03:55:11.380Z,11.85
2023-05-16T03:57:37.922Z,12.25
2023-05-16T04:00:05.050Z,12.66
2023-05-16T04:02:31.602Z,12.94
2023-05-16T04:04:58.215Z,13.10
2023-05-16T04:07:24.762Z,13.41
2023-05-16T04:09:52.352Z,13.72
2023-05-16T04:12:19.674Z,14.11
2023-05-16T04:14:46.240Z,14.32
2023-05-16T04:17:12.713Z,14.71
2023-05-16T04:19:39.205Z,15.06
2023-05-16T04:22:05.665Z,14.92
2023-05-16T04:24:32.080Z,14.80
2023-05-16T04:26:58.536Z,15.23
2023-05-16T04:29:25.182Z,15.58
2023-05-16T04:31:51.955Z,15.61
2023-05-16T04:34:18.518Z,15.66
2023-05-16T04:36:45.120Z,15.66
2023-05-16T04:39:11.881Z,15.86
2023-05-16T04:41:38.288Z,16.19
2023-05-16T04:44:05.019Z,16.38
2023-05-16T04:46:31.524Z,16.52
2023-05-16T04:48:58.115Z,16.59
2023-05-16T04:51:24.854Z,16.39
2023-05-16T04:53:51.363Z,16.25
2023-05-16T04:56:17.900Z,16.41
2023-05-16T04:58:44.856Z,16.67
2023-05-16T05:01:11.455Z,16.96
2023-05-16T05:03:38.060Z,17.17
2023-05-16T05:06:04.764Z,17.16
2023-05-16T05:08:31.435Z,17.11
2023-05-16T05:10:58.070Z,17.29
2023-05-16T05:13:24.525Z,17.00
2023-05-16T05:15:50.970Z,16.91
2023-05-16T05:18:17.761Z,16.94
2023-05-16T05:20:44.775Z,16.66
2023-05-16T05:23:11.423Z,16.42
2023-05-16T05:25:39.476Z,16.30
2023-05-16T05:28:06.110Z,16.25
2023-05-16T05:30:32.624Z,16.27
2023-05-16T05:32:59.396Z,16.32
2023-05-16T05:35:26.474Z,16.20
2023-05-16T05:37:53.242Z,16.06
2023-05-16T05:40:19.708Z,16.19
2023-05-16T05:42:47.245Z,16.33
2023-05-16T05:45:15.600Z,16.36
2023-05-16T05:47:42.556Z,16.25
2023-05-16T05:50:10.031Z,16.11
2023-05-16T05:52:36.557Z,16.11
2023-05-16T05:55:03.575Z,16.19
2023-05-16T05:57:30.061Z,16.25
2023-05-16T05:59:56.573Z,16.24
2023-05-16T06:02:23.155Z,16.15
2023-05-16T06:04:49.969Z,16.02
2023-05-16T06:07:16.504Z,16.13
2023-05-16T06:09:43.059Z,16.37
2023-05-16T06:12:09.891Z,16.59
2023-05-16T06:14:36.554Z,16.67
2023-05-16T06:17:02.994Z,16.75
2023-05-16T06:19:29.643Z,16.89
2023-05-16T06:21:56.044Z,16.97
2023-05-16T06:24:22.818Z,17.03
2023-05-16T06:26:49.287Z,17.07
2023-05-16T06:29:16.544Z,17.16
2023-05-16T06:31:43.160Z,17.23
2023-05-16T06:34:09.731Z,17.29
2023-05-16T06:36:36.125Z,17.51
2023-05-16T06:39:02.860Z,17.57
2023-05-16T06:41:29.335Z,17.57
2023-05-16T06:43:55.916Z,17.66
2023-05-16T06:46:22.740Z,17.80
2023-05-16T06:48:49.333Z,17.84
2023-05-16T06:51:15.996Z,17.91
2023-05-16T06:53:42.617Z,17.95
2023-05-16T06:56:09.363Z,17.97
2023-05-16T06:58:36.044Z,17.94
2023-05-16T07:01:02.775Z,17.95
2023-05-16T07:03:29.580Z,18.03
2023-05-16T07:05:56.407Z,18.14
2023-05-16T07:08:22.925Z,18.43
2023-05-16T07:10:49.423Z,18.65
2023-05-16T07:13:15.970Z,18.74
2023-05-16T07:15:42.541Z,18.81
2023-05-16T07:18:09.102Z,19.08
2023-05-16T07:20:35.615Z,19.31
2023-05-16T07:23:02.091Z,19.57
2023-05-16T07:25:29.048Z,19.78
2023-05-16T07:27:55.837Z,19.92
2023-05-16T07:30:22.614Z,20.11
2023-05-16T07:32:49.797Z,20.29
2023-05-16T07:35:16.286Z,19.96
2023-05-16T07:37:43.007Z,19.69
2023-05-16T07:40:11.197Z,19.58
2023-05-16T07:42:37.709Z,19.56
2023-05-16T07:45:05.610Z,19.83
2023-05-16T07:47:32.210Z,19.81
2023-05-16T07:49:58.743Z,19.90
2023-05-16T07:52:25.207Z,19.88
2023-05-16T07:54:51.739Z,19.99
2023-05-16T07:57:18.271Z,20.44
2023-05-16T07:59:44.896Z,20.75
2023-05-16T08:02:12.013Z,20.72
2023-05-16T08:04:38.857Z,20.71
2023-05-16T08:07:05.636Z,20.83
2023-05-16T08:09:32.248Z,21.10
2023-05-16T08:11:58.904Z,21.39
2023-05-16T08:14:25.761Z,21.36
2023-05-16T08:16:52.323Z,21.18
2023-05-16T08:19:18.964Z,21.07
2023-05-16T08:21:45.699Z,21.15
2023-05-16T08:24:12.375Z,21.52
2023-05-16T08:26:38.830Z,22.03
2023-05-16T08:29:05.572Z,22.65
2023-05-16T08:31:32.447Z,23.12
2023-05-16T08:33:58.972Z,23.15
2023-05-16T08:36:25.513Z,23.12
2023-05-16T08:38:52.001Z,23.59
2023-05-16T08:41:18.632Z,23.84
2023-05-16T08:43:45.216Z,24.00
2023-05-16T08:46:11.748Z,24.42
2023-05-16T08:48:41.019Z,24.94
2023-05-16T08:51:09.418Z,25.13
2023-05-16T08:53:46.101Z,25.42
2023-05-16T08:56:13.514Z,25.73
2023-05-16T08:58:40.515Z,25.74
2023-05-16T09:01:07.432Z,25.70
2023-05-16T09:03:35.914Z,25.65
2023-05-16T09:06:05.955Z,25.31
2023-05-16T09:08:33.389Z,24.93
2023-05-16T09:11:01.701Z,24.76
2023-05-16T09:13:28.150Z,24.65
2023-05-16T09:16:10.568Z,24.63
2023-05-16T09:18:37.184Z,24.19
2023-05-16T09:21:05.557Z,24.10
2023-05-16T09:23:35.114Z,23.94
2023-05-16T09:26:05.142Z,23.57
2023-05-16T09:28:31.641Z,23.50
2023-05-16T09:30:58.641Z,23.97
2023-05-16T09:33:29.725Z,24.38
2023-05-16T09:36:00.852Z,24.16
2023-05-16T09:38:28.695Z,23.81
2023-05-16T09:40:55.688Z,23.81
2023-05-16T09:43:27.092Z,23.65
2023-05-16T09:45:54.583Z,23.41
2023-05-16T09:48:21.853Z,23.40
2023-05-16T09:50:50.972Z,23.71
2023-05-16T09:53:17.958Z,24.21
2023-05-16T09:55:44.408Z,24.65
2023-05-16T09:58:10.914Z,24.52
2023-05-16T10:00:38.127Z,24.34
2023-05-16T10:03:06.110Z,24.02
2023-05-16T10:05:33.816Z,23.46
2023-05-16T10:08:03.067Z,23.34
2023-05-16T10:10:30.178Z,23.29
2023-05-16T10:12:59.939Z,23.17
2023-05-16T10:15:27.657Z,22.78
2023-05-16T10:17:57.461Z,22.63
2023-05-16T10:20:24.087Z,22.54
2023-05-16T10:22:53.328Z,22.43
2023-05-16T10:25:32.099Z,22.29
2023-05-16T10:27:59.772Z,22.06
2023-05-16T10:30:26.608Z,21.88
2023-05-16T10:32:53.841Z,21.90
2023-05-16T10:35:21.139Z,21.95
2023-05-16T10:37:49.402Z,21.94
2023-05-16T10:40:17.097Z,21.70
2023-05-16T10:42:58.006Z,21.37
2023-05-16T10:45:25.191Z,21.12
2023-05-16T10:48:03.213Z,20.95
2023-05-16T10:50:43.227Z,20.82
2023-05-16T10:53:16.884Z,20.71
2023-05-16T10:55:59.742Z,20.67
2023-05-16T10:58:35.181Z,20.67
2023-05-16T11:01:32.185Z,20.58
2023-05-16T11:03:58.978Z,20.50
2023-05-16T11:06:27.865Z,20.44
2023-05-16T11:09:17.579Z,20.29
2023-05-16T11:11:53.279Z,20.13
2023-05-16T11:14:28.212Z,20.11
2023-05-16T11:17:08.093Z,20.12
2023-05-16T11:19:47.124Z,20.20
2023-05-16T11:22:19.945Z,20.27
2023-05-16T11:24:55.123Z,20.41
2023-05-16T11:27:32.889Z,20.46
2023-05-16T11:30:06.974Z,20.44
2023-05-16T11:32:35.103Z,20.42
2023-05-16T11:35:02.154Z,20.32
2023-05-16T11:37:28.899Z,20.22
2023-05-16T11:40:05.517Z,20.06
2023-05-16T11:42:35.721Z,19.95
2023-05-16T11:45:10.262Z,19.87
2023-05-16T11:47:37.489Z,19.83
2023-05-16T11:50:07.488Z,19.73
2023-05-16T11:52:34.079Z,19.64
2023-05-16T11:55:00.711Z,19.52
2023-05-16T11:57:28.095Z,19.33
2023-05-16T11:59:54.609Z,19.28
2023-05-16T12:02:21.895Z,19.25
2023-05-16T12:04:48.537Z,19.20
2023-05-16T12:07:15.128Z,19.20
2023-05-16T12:09:41.917Z,19.20
2023-05-16T12:12:08.808Z,19.19
2023-05-16T12:14:35.417Z,19.11
2023-05-16T12:17:02.358Z,19.10
2023-05-16T12:19:29.073Z,19.06
2023-05-16T12:21:55.775Z,19.05
2023-05-16T12:24:22.269Z,19.02
2023-05-16T12:26:48.964Z,19.04
2023-05-16T12:29:15.485Z,19.14
2023-05-16T12:31:42.072Z,19.23
2023-05-16T12:34:16.599Z,19.24
2023-05-16T12:36:43.154Z,19.02
2023-05-16T12:39:12.676Z,18.81
2023-05-16T12:41:42.479Z,18.60
2023-05-16T12:44:17.359Z,18.47
2023-05-16T12:46:49.437Z,18.31
2023-05-16T12:49:16.554Z,18.24
2023-05-16T12:51:49.476Z,18.15
2023-05-16T12:54:16.102Z,18.09
2023-05-16T12:56:42.634Z,18.06
2023-05-16T12:59:09.340Z,18.01
2023-05-16T13:01:36.843Z,17.91
2023-05-16T13:04:05.133Z,17.80
2023-05-16T13:06:45.046Z,17.70
2023-05-16T13:09:18.967Z,17.70
2023-05-16T13:11:45.568Z,17.70
2023-05-16T13:14:12.084Z,17.70
2023-05-16T13:16:38.818Z,17.61
2023-05-16T13:19:05.690Z,17.45
2023-05-16T13:21:32.316Z,17.29
2023-05-16T13:23:59.122Z,17.12
2023-05-16T13:26:25.851Z,16.96
2023-05-16T13:28:52.429Z,16.83
2023-05-16T13:31:19.592Z,16.75
2023-05-16T13:33:46.169Z,16.68
2023-05-16T13:36:12.716Z,16.63
2023-05-16T13:38:39.306Z,16.58
2023-05-16T13:41:05.822Z,16.60
2023-05-16T13:43:32.508Z,16.59
2023-05-16T13:45:59.049Z,16.56
2023-05-16T13:48:26.506Z,16.59
2023-05-16T13:50:53.363Z,16.55
2023-05-16T13:53:19.818Z,16.49
2023-05-16T13:55:46.716Z,16.42
2023-05-16T13:58:13.310Z,16.37
2023-05-16T14:00:45.040Z,16.29
2023-05-16T14:03:12.965Z,16.22
2023-05-16T14:05:39.669Z,16.13
2023-05-16T14:08:06.349Z,16.04
2023-05-16T14:10:32.873Z,15.94
2023-05-16T14:12:59.514Z,15.83
2023-05-16T14:15:26.201Z,15.73
2023-05-16T14:17:53.204Z,15.64
2023-05-16T14:20:19.899Z,15.60
2023-05-16T14:22:46.627Z,15.60
2023-05-16T14:25:13.166Z,15.55
2023-05-16T14:27:39.924Z,15.45
2023-05-16T14:30:07.275Z,15.31
2023-05-16T14:32:34.028Z,15.14
2023-05-16T14:35:00.601Z,15.01
2023-05-16T14:37:27.050Z,14.86
2023-05-16T14:39:53.835Z,14.71
2023-05-16T14:42:20.410Z,14.57
2023-05-16T14:44:47.015Z,14.46
2023-05-16T14:47:13.626Z,14.35
2023-05-16T14:49:40.819Z,14.22
2023-05-16T14:52:07.277Z,14.06
2023-05-16T14:54:33.796Z,13.92
2023-05-16T14:57:00.609Z,13.80
2023-05-16T14:59:28.027Z,13.71
2023-05-16T15:01:54.576Z,13.64
2023-05-16T15:04:21.481Z,13.58
2023-05-16T15:06:48.158Z,13.55
2023-05-16T15:09:14.659Z,13.55
2023-05-16T15:11:41.153Z,13.55
2023-05-16T15:14:07.698Z,13.53
2023-05-16T15:16:34.732Z,13.51
2023-05-16T15:19:01.406Z,13.51
2023-05-16T15:21:28.131Z,13.52
2023-05-16T15:23:54.720Z,13.52
2023-05-16T15:26:21.256Z,13.53
2023-05-16T15:28:48.458Z,13.57
2023-05-16T15:31:15.032Z,13.58
2023-05-16T15:33:41.566Z,13.59
2023-05-16T15:36:08.329Z,13.60
2023-05-16T15:38:34.876Z,13.61
2023-05-16T15:41:16.439Z,13.61
2023-05-16T15:43:48.177Z,13.61
2023-05-16T15:46:15.052Z,13.60
2023-05-16T15:48:41.596Z,13.59
2023-05-16T15:51:09.278Z,13.57
2023-05-16T15:53:35.961Z,13.59
2023-05-16T15:56:02.430Z,13.58
2023-05-16T15:58:28.970Z,13.57
2023-05-16T16:00:55.948Z,13.59
2023-05-16T16:03:22.822Z,13.61
2023-05-16T16:05:50.592Z,13.64
2023-05-16T16:08:18.858Z,13.64
2023-05-16T16:10:45.557Z,13.63
2023-05-16T16:13:12.166Z,13.63
2023-05-16T16:15:39.273Z,13.66
2023-05-16T16:18:06.389Z,13.67
2023-05-16T16:20:33.072Z,13.70
2023-05-16T16:22:59.639Z,13.74
2023-05-16T16:25:26.485Z,13.80
2023-05-16T16:27:53.563Z,13.81
2023-05-16T16:30:20.059Z,13.81
2023-05-16T16:32:46.729Z,13.81
2023-05-16T16:35:13.488Z,13.83
2023-05-16T16:37:41.714Z,13.84
2023-05-16T16:40:10.116Z,13.83
2023-05-16T16:42:37.136Z,13.80
2023-05-16T16:45:04.792Z,13.75
2023-05-16T16:47:31.289Z,13.69
2023-05-16T16:49:58.479Z,13.65
2023-05-16T16:52:25.170Z,13.64
2023-05-16T16:54:51.740Z,13.61
2023-05-16T16:57:18.551Z,13.58
2023-05-16T16:59:45.052Z,13.51
2023-05-16T17:02:11.700Z,13.44
2023-05-16T17:04:38.445Z,13.40
2023-05-16T17:07:05.308Z,13.35
2023-05-16T17:09:31.768Z,13.32
2023-05-16T17:11:58.400Z,13.28
2023-05-16T17:14:24.860Z,13.24
2023-05-16T17:16:51.419Z,13.21
2023-05-16T17:19:18.144Z,13.18
2023-05-16T17:21:44.796Z,13.15
2023-05-16T17:24:11.623Z,13.11
2023-05-16T17:26:38.208Z,13.07
2023-05-16T17:29:05.116Z,13.02
2023-05-16T17:31:32.005Z,12.98
2023-05-16T17:33:58.728Z,12.96
2023-05-16T17:36:25.214Z,12.92
2023-05-16T17:38:51.745Z,12.89
2023-05-16T17:41:18.701Z,12.86
2023-05-16T17:43:45.681Z,12.84
2023-05-16T17:46:12.488Z,12.81
2023-05-16T17:48:39.127Z,12.78
2023-05-16T17:51:05.830Z,12.74
2023-05-16T17:53:32.438Z,12.72
2023-05-16T17:55:58.956Z,12.68
2023-05-16T17:58:25.445Z,12.65
2023-05-16T18:00:51.958Z,12.62
2023-05-16T18:03:19.165Z,12.61
2023-05-16T18:05:45.790Z,12.58
2023-05-16T18:08:12.357Z,12.54
2023-05-16T18:10:50.902Z,12.50
2023-05-16T18:13:18.453Z,12.47
2023-05-16T18:15:45.056Z,12.45
2023-05-16T18:18:11.621Z,12.42
2023-05-16T18:20:38.279Z,12.41
2023-05-16T18:23:04.994Z,12.39
2023-05-16T18:25:31.438Z,12.37
2023-05-16T18:27:58.013Z,12.37
2023-05-16T18:30:24.557Z,12.39
2023-05-16T18:32:51.161Z,12.38
2023-05-16T18:35:18.029Z,12.37
2023-05-16T18:37:44.739Z,12.39
2023-05-16T18:40:11.850Z,12.40
2023-05-16T18:42:38.296Z,12.39
2023-05-16T18:45:05.335Z,12.40
2023-05-16T18:47:31.937Z,12.39
2023-05-16T18:49:58.649Z,12.39
2023-05-16T18:52:25.154Z,12.39
2023-05-16T18:54:51.817Z,12.37
2023-05-16T18:57:18.323Z,12.35
2023-05-16T18:59:44.820Z,12.34
2023-05-16T19:02:11.294Z,12.34
2023-05-16T19:04:37.822Z,12.34
2023-05-16T19:07:06.019Z,12.34
2023-05-16T19:09:33.874Z,12.34
2023-05-16T19:12:00.368Z,12.34
2023-05-16T19:14:26.946Z,12.33
2023-05-16T19:16:53.522Z,12.31
2023-05-16T19:19:20.225Z,12.30
2023-05-16T19:21:47.183Z,12.30
2023-05-16T19:24:13.670Z,12.30
2023-05-16T19:26:40.175Z,12.31
2023-05-16T19:29:06.900Z,12.31
2023-05-16T19:31:33.878Z,12.31
2023-05-16T19:34:00.554Z,12.31
2023-05-16T19:36:30.172Z,12.30
2023-05-16T19:38:56.918Z,12.28
2023-05-16T19:41:23.466Z,12.26
2023-05-16T19:43:51.429Z,12.26
2023-05-16T19:46:17.989Z,12.24
2023-05-16T19:48:44.693Z,12.24
2023-05-16T19:51:11.502Z,12.23
2023-05-16T19:53:38.416Z,12.21
2023-05-16T19:56:05.527Z,12.18
2023-05-16T19:58:32.200Z,12.15
2023-05-16T20:00:58.970Z,12.11
2023-05-16T20:03:25.592Z,12.08
2023-05-16T20:05:52.364Z,12.07
2023-05-16T20:08:18.791Z,12.05
2023-05-16T20:10:45.249Z,12.05
2023-05-16T20:13:11.743Z,12.05
2023-05-16T20:15:38.330Z,12.06
2023-05-16T20:18:05.005Z,12.05
2023-05-16T20:20:31.739Z,12.06
2023-05-16T20:22:58.184Z,12.06
2023-05-16T20:25:24.653Z,12.06
2023-05-16T20:27:51.324Z,12.06
2023-05-16T20:30:18.018Z,12.06
2023-05-16T20:32:44.968Z,12.05
2023-05-16T20:35:11.604Z,12.05
2023-05-16T20:37:38.594Z,12.05
2023-05-16T20:40:05.840Z,12.06
2023-05-16T20:42:32.485Z,12.05
2023-05-16T20:44:59.142Z,12.04
2023-05-16T20:47:25.661Z,12.02
2023-05-16T20:49:52.257Z,12.01
2023-05-16T20:52:20.507Z,12.00
2023-05-16T20:54:48.651Z,11.99
2023-05-16T20:57:16.002Z,11.98
2023-05-16T20:59:42.469Z,11.98
2023-05-16T21:02:09.218Z,11.95
2023-05-16T21:04:37.135Z,11.92
2023-05-16T21:07:05.357Z,11.89
2023-05-16T21:09:32.831Z,11.87
2023-05-16T21:11:59.542Z,11.84
2023-05-16T21:14:26.117Z,11.81
2023-05-16T21:16:52.772Z,11.80
2023-05-16T21:19:19.566Z,11.80
2023-05-16T21:21:46.202Z,11.81
2023-05-16T21:24:12.714Z,11.82
2023-05-16T21:26:39.325Z,11.82
2023-05-16T21:29:05.780Z,11.81
2023-05-16T21:31:32.284Z,11.82
2023-05-16T21:33:58.962Z,11.81
2023-05-16T21:36:25.664Z,11.82
2023-05-16T21:38:52.127Z,11.83
2023-05-16T21:41:19.820Z,11.85
2023-05-16T21:43:46.281Z,11.87
2023-05-16T21:46:13.060Z,11.89
2023-05-16T21:48:40.023Z,11.90
2023-05-16T21:51:06.799Z,11.90
2023-05-16T21:53:33.273Z,11.90
2023-05-16T21:56:00.605Z,11.89
2023-05-16T21:58:27.066Z,11.88
2023-05-16T22:00:53.548Z,11.88
2023-05-16T22:03:20.317Z,11.90
2023-05-16T22:05:47.096Z,11.90
2023-05-16T22:08:14.013Z,11.88
2023-05-16T22:10:40.530Z,11.87
2023-05-16T22:13:07.137Z,11.87
2023-05-16T22:15:33.656Z,11.86
2023-05-16T22:18:00.470Z,11.84
2023-05-16T22:20:27.096Z,11.83
2023-05-16T22:22:53.616Z,11.83
2023-05-16T22:25:20.292Z,11.84
2023-05-16T22:27:46.820Z,11.82
2023-05-16T22:30:13.449Z,11.79
2023-05-16T22:32:40.061Z,11.79
2023-05-16T22:35:06.964Z,11.79
2023-05-16T22:37:33.522Z,11.79
2023-05-16T22:40:00.061Z,11.79
2023-05-16T22:42:26.580Z,11.79
2023-05-16T22:44:53.057Z,11.79
2023-05-16T22:47:19.676Z,11.81
2023-05-16T22:49:46.492Z,11.81
2023-05-16T22:52:13.305Z,11.79
2023-05-16T22:54:39.823Z,11.76
2023-05-16T22:57:06.371Z,11.75
2023-05-16T22:59:32.823Z,11.73
2023-05-16T23:01:59.326Z,11.74
2023-05-16T23:04:25.840Z,11.75
2023-05-16T23:06:52.494Z,11.75
2023-05-16T23:09:19.041Z,11.76
2023-05-16T23:11:45.646Z,11.77
2023-05-16T23:14:12.102Z,11.78
2023-05-16T23:16:38.723Z,11.80
2023-05-16T23:19:07.430Z,11.81
2023-05-16T23:21:35.748Z,11.83
2023-05-16T23:24:02.310Z,11.84
2023-05-16T23:26:28.985Z,11.85
2023-05-16T23:28:55.687Z,11.87
2023-05-16T23:31:22.667Z,11.87
2023-05-16T23:33:49.231Z,11.88
2023-05-16T23:36:15.783Z,11.90
2023-05-16T23:38:42.885Z,11.90
2023-05-16T23:41:09.821Z,11.91
2023-05-16T23:43:36.281Z,11.91
2023-05-16T23:48:37.417Z,11.92
2023-05-16T23:51:04.658Z,11.95
2023-05-16T23:53:31.140Z,11.96
2023-05-16T23:55:57.958Z,11.95
2023-05-16T23:58:24.432Z,11.93
